createdAt,value
2018-06-15T00:01:05.910Z,16.82
2018-06-15T00:03:34.682Z,16.85
2018-06-15T00:06:03.479Z,16.82
2018-06-15T00:08:32.272Z,16.82
2018-06-15T00:11:01.050Z,16.75
2018-06-15T00:13:29.824Z,16.82
2018-06-15T00:15:58.597Z,16.73
2018-06-15T00:18:27.371Z,16.78
2018-06-15T00:20:56.134Z,16.65
2018-06-15T00:23:24.897Z,16.73
2018-06-15T00:25:53.691Z,16.68
2018-06-15T00:28:22.438Z,16.61
2018-06-15T00:30:51.211Z,16.68
2018-06-15T00:33:19.967Z,16.67
2018-06-15T00:35:48.722Z,16.56
2018-06-15T00:38:17.460Z,16.62
2018-06-15T00:40:46.215Z,16.62
2018-06-15T00:43:14.990Z,16.69
2018-06-15T00:45:43.766Z,16.59
2018-06-15T00:48:12.562Z,16.58
2018-06-15T00:50:41.347Z,16.62
2018-06-15T00:53:10.094Z,16.69
2018-06-15T00:55:38.877Z,16.57
2018-06-15T00:58:07.679Z,16.66
2018-06-15T01:00:36.459Z,16.67
2018-06-15T01:03:05.252Z,16.61
2018-06-15T01:05:33.987Z,16.52
2018-06-15T01:08:02.788Z,16.60
2018-06-15T01:10:31.563Z,16.54
2018-06-15T01:13:00.362Z,16.55
2018-06-15T01:15:29.148Z,16.62
2018-06-15T01:17:57.948Z,16.51
2018-06-15T01:20:26.758Z,16.62
2018-06-15T01:22:55.599Z,16.63
2018-06-15T01:25:24.337Z,16.58
2018-06-15T01:27:53.103Z,16.39
2018-06-15T01:30:21.856Z,16.45
2018-06-15T01:32:50.636Z,16.43
2018-06-15T01:35:19.390Z,16.41
2018-06-15T01:37:48.210Z,16.45
2018-06-15T01:40:16.997Z,16.42
2018-06-15T01:42:45.756Z,16.45
2018-06-15T01:45:14.690Z,16.47
2018-06-15T01:47:43.425Z,16.36
2018-06-15T01:50:12.286Z,16.25
2018-06-15T01:52:41.314Z,16.33
2018-06-15T01:55:10.138Z,16.28
2018-06-15T01:57:38.938Z,16.41
2018-06-15T02:00:07.923Z,16.32
2018-06-15T02:02:36.685Z,16.29
2018-06-15T02:05:05.465Z,16.27
2018-06-15T02:07:34.538Z,16.36
2018-06-15T02:10:03.342Z,16.30
2018-06-15T02:12:32.098Z,16.43
2018-06-15T02:15:01.162Z,16.39
2018-06-15T02:17:29.983Z,16.33
2018-06-15T02:19:58.702Z,16.35
2018-06-15T02:22:27.474Z,16.28
2018-06-15T02:24:56.219Z,16.29
2018-06-15T02:27:25.017Z,16.38
2018-06-15T02:29:53.798Z,16.39
2018-06-15T02:32:22.631Z,16.37
2018-06-15T02:34:51.492Z,16.35
2018-06-15T02:37:20.676Z,16.37
2018-06-15T02:39:49.430Z,16.37
2018-06-15T02:42:18.173Z,16.40
2018-06-15T02:44:46.946Z,16.45
2018-06-15T02:47:15.698Z,16.41
2018-06-15T02:49:44.454Z,16.46
2018-06-15T02:52:13.286Z,16.48
2018-06-15T02:54:42.120Z,16.40
2018-06-15T02:57:10.931Z,16.45
2018-06-15T02:59:39.723Z,16.49
2018-06-15T03:02:08.466Z,16.43
2018-06-15T03:04:37.259Z,16.42
2018-06-15T03:07:06.032Z,16.45
2018-06-15T03:09:34.771Z,16.33
2018-06-15T03:12:03.559Z,16.38
2018-06-15T03:14:32.303Z,16.48
2018-06-15T03:17:01.053Z,16.46
2018-06-15T03:19:29.857Z,16.46
2018-06-15T03:21:58.794Z,16.46
2018-06-15T03:24:27.532Z,16.47
2018-06-15T03:26:56.308Z,16.52
2018-06-15T03:29:25.081Z,16.54
2018-06-15T03:31:53.837Z,16.58
2018-06-15T03:34:22.616Z,16.60
2018-06-15T03:36:51.366Z,16.62
2018-06-15T03:39:20.111Z,16.66
2018-06-15T03:41:48.866Z,16.56
2018-06-15T03:44:17.637Z,16.51
2018-06-15T03:46:46.412Z,16.58
2018-06-15T03:49:15.274Z,16.62
2018-06-15T03:51:44.036Z,16.72
2018-06-15T03:54:12.783Z,16.76
2018-06-15T03:56:41.516Z,16.63
2018-06-15T03:59:10.266Z,16.66
2018-06-15T04:01:39.018Z,16.73
2018-06-15T04:04:07.806Z,16.91
2018-06-15T04:06:36.593Z,17.15
2018-06-15T04:09:08.011Z,17.18
2018-06-15T04:11:37.093Z,17.60
2018-06-15T04:14:05.879Z,17.58
2018-06-15T04:16:35.159Z,17.76
2018-06-15T04:19:03.933Z,18.17
2018-06-15T04:21:32.716Z,18.39
2018-06-15T04:24:01.482Z,18.45
2018-06-15T04:26:30.281Z,18.93
2018-06-15T04:28:59.029Z,18.91
2018-06-15T04:31:27.791Z,19.14
2018-06-15T04:33:56.542Z,19.19
2018-06-15T04:36:25.307Z,18.82
2018-06-15T04:38:54.050Z,18.66
2018-06-15T04:41:22.795Z,18.58
2018-06-15T04:43:51.605Z,18.44
2018-06-15T04:46:20.605Z,18.41
2018-06-15T04:48:49.369Z,18.36
2018-06-15T04:51:18.146Z,18.42
2018-06-15T04:53:47.068Z,18.21
2018-06-15T04:56:15.838Z,18.47
2018-06-15T04:58:44.643Z,18.62
2018-06-15T05:01:14.030Z,18.63
2018-06-15T05:03:43.148Z,18.62
2018-06-15T05:06:12.753Z,18.59
2018-06-15T05:08:41.834Z,18.74
2018-06-15T05:11:10.973Z,18.75
2018-06-15T05:13:39.774Z,18.71
2018-06-15T05:16:08.761Z,18.75
2018-06-15T05:18:37.553Z,18.72
2018-06-15T05:21:06.338Z,18.70
2018-06-15T05:23:35.150Z,18.66
2018-06-15T05:26:04.002Z,18.69
2018-06-15T05:28:33.166Z,18.63
2018-06-15T05:31:02.491Z,18.66
2018-06-15T05:33:31.253Z,18.69
2018-06-15T05:36:00.506Z,18.68
2018-06-15T05:38:29.415Z,18.72
2018-06-15T05:40:58.549Z,18.77
2018-06-15T05:43:27.349Z,18.81
2018-06-15T05:45:56.127Z,18.85
2018-06-15T05:48:24.937Z,18.84
2018-06-15T05:50:54.034Z,18.79
2018-06-15T05:53:22.988Z,18.81
2018-06-15T05:55:51.818Z,18.76
2018-06-15T05:58:20.593Z,18.86
2018-06-15T06:00:49.337Z,18.81
2018-06-15T06:03:19.814Z,18.85
2018-06-15T06:05:49.344Z,18.85
2018-06-15T06:08:19.922Z,18.95
2018-06-15T06:10:49.255Z,18.95
2018-06-15T06:13:18.052Z,18.99
2018-06-15T06:15:47.006Z,19.06
2018-06-15T06:18:15.876Z,19.08
2018-06-15T06:20:44.678Z,19.16
2018-06-15T06:23:13.633Z,17.19
2018-06-15T06:25:42.544Z,19.05
2018-06-15T06:28:11.324Z,19.14
2018-06-15T06:30:40.131Z,19.16
2018-06-15T06:33:08.914Z,19.14
2018-06-15T06:35:38.103Z,19.12
2018-06-15T06:38:06.930Z,19.12
2018-06-15T06:40:35.689Z,19.18
2018-06-15T06:43:04.488Z,19.17
2018-06-15T06:45:33.342Z,19.20
2018-06-15T06:48:02.280Z,19.20
2018-06-15T06:50:31.191Z,19.17
2018-06-15T06:53:00.055Z,19.08
2018-06-15T06:55:28.853Z,19.09
2018-06-15T06:57:57.685Z,19.08
2018-06-15T07:00:26.470Z,19.11
2018-06-15T07:02:55.281Z,19.13
2018-06-15T07:05:24.097Z,19.12
2018-06-15T07:07:52.873Z,19.10
2018-06-15T07:10:21.624Z,19.08
2018-06-15T07:12:50.386Z,19.09
2018-06-15T07:15:19.161Z,19.01
2018-06-15T07:17:47.981Z,19.02
2018-06-15T07:20:16.740Z,19.03
2018-06-15T07:22:45.549Z,18.99
2018-06-15T07:25:14.339Z,19.03
2018-06-15T07:27:43.313Z,19.02
2018-06-15T07:30:12.158Z,19.02
2018-06-15T07:32:40.897Z,19.04
2018-06-15T07:35:09.681Z,19.05
2018-06-15T07:37:38.519Z,19.07
2018-06-15T07:40:07.299Z,19.11
2018-06-15T07:42:36.066Z,19.05
2018-06-15T07:45:05.218Z,19.07
2018-06-15T07:47:33.998Z,19.06
2018-06-15T07:50:03.025Z,19.04
2018-06-15T07:52:31.993Z,18.98
2018-06-15T07:55:00.721Z,18.97
2018-06-15T07:57:29.519Z,19.06
2018-06-15T07:59:58.328Z,19.11
2018-06-15T08:02:27.139Z,19.20
2018-06-15T08:04:55.913Z,19.18
2018-06-15T08:07:24.753Z,19.17
2018-06-15T08:09:53.559Z,19.19
2018-06-15T08:12:22.323Z,19.11
2018-06-15T08:14:51.130Z,19.01
2018-06-15T08:17:20.164Z,19.01
2018-06-15T08:19:48.901Z,19.08
2018-06-15T08:22:17.718Z,19.04
2018-06-15T08:24:46.485Z,19.08
2018-06-15T08:27:15.236Z,19.08
2018-06-15T08:29:44.222Z,19.18
2018-06-15T08:32:12.985Z,19.26
2018-06-15T08:34:41.757Z,19.17
2018-06-15T08:37:10.542Z,19.20
2018-06-15T08:39:39.301Z,19.16
2018-06-15T08:42:08.091Z,19.19
2018-06-15T08:44:36.887Z,19.17
2018-06-15T08:47:05.769Z,19.31
2018-06-15T08:49:34.578Z,19.28
2018-06-15T08:52:03.370Z,19.32
2018-06-15T08:54:32.197Z,19.28
2018-06-15T08:57:00.966Z,19.30
2018-06-15T08:59:29.759Z,19.24
2018-06-15T09:01:58.511Z,19.22
2018-06-15T09:04:27.277Z,19.22
2018-06-15T09:06:56.036Z,19.31
2018-06-15T09:09:24.854Z,19.26
2018-06-15T09:11:53.582Z,19.38
2018-06-15T09:14:22.357Z,19.37
2018-06-15T09:16:51.110Z,19.41
2018-06-15T09:19:19.857Z,19.34
2018-06-15T09:21:48.639Z,19.31
2018-06-15T09:24:17.390Z,19.28
2018-06-15T09:26:46.142Z,19.31
2018-06-15T09:29:15.203Z,19.33
2018-06-15T09:31:43.982Z,19.29
2018-06-15T09:34:12.726Z,19.29
2018-06-15T09:36:41.513Z,19.25
2018-06-15T09:39:11.538Z,19.32
2018-06-15T09:41:40.840Z,19.40
2018-06-15T09:44:09.618Z,19.41
2018-06-15T09:46:38.403Z,19.42
2018-06-15T09:49:07.155Z,19.45
2018-06-15T09:51:35.934Z,19.34
2018-06-15T09:54:04.730Z,19.36
2018-06-15T09:56:33.490Z,19.37
2018-06-15T09:59:02.283Z,19.34
2018-06-15T10:01:31.042Z,19.30
2018-06-15T10:03:59.797Z,19.38
2018-06-15T10:06:34.885Z,19.43
2018-06-15T10:09:03.965Z,19.41
2018-06-15T10:11:32.706Z,19.36
2018-06-15T10:14:01.651Z,19.46
2018-06-15T10:16:30.415Z,19.41
2018-06-15T10:18:59.218Z,19.45
2018-06-15T10:21:27.986Z,19.37
2018-06-15T10:23:56.744Z,19.38
2018-06-15T10:26:25.502Z,19.44
2018-06-15T10:28:54.312Z,19.38
2018-06-15T10:31:23.106Z,19.43
2018-06-15T10:33:51.925Z,19.50
2018-06-15T10:36:20.839Z,19.46
2018-06-15T10:38:49.625Z,19.50
2018-06-15T10:41:18.395Z,19.56
2018-06-15T10:43:47.155Z,19.62
2018-06-15T10:46:16.010Z,19.60
2018-06-15T10:48:44.750Z,19.52
2018-06-15T10:51:13.506Z,19.62
2018-06-15T10:53:42.272Z,19.58
2018-06-15T10:56:11.051Z,19.38
2018-06-15T10:58:39.917Z,19.60
2018-06-15T11:01:08.809Z,19.53
2018-06-15T11:03:37.570Z,19.61
2018-06-15T11:06:06.338Z,19.55
2018-06-15T11:08:35.104Z,19.50
2018-06-15T11:11:03.866Z,19.75
2018-06-15T11:13:32.617Z,19.72
2018-06-15T11:16:01.530Z,19.62
2018-06-15T11:18:30.294Z,19.57
2018-06-15T11:20:59.260Z,19.60
2018-06-15T11:23:28.235Z,19.54
2018-06-15T11:25:57.007Z,19.58
2018-06-15T11:28:25.955Z,19.67
2018-06-15T11:30:54.809Z,19.76
2018-06-15T11:33:23.814Z,19.93
2018-06-15T11:35:52.594Z,19.80
2018-06-15T11:38:21.498Z,19.86
2018-06-15T11:40:50.257Z,19.84
2018-06-15T11:43:19.065Z,19.82
2018-06-15T11:45:47.862Z,19.80
2018-06-15T11:48:16.623Z,19.87
2018-06-15T11:50:45.407Z,19.91
2018-06-15T11:53:14.237Z,19.86
2018-06-15T11:55:42.973Z,20.04
2018-06-15T11:58:11.722Z,20.07
2018-06-15T12:00:40.489Z,19.98
2018-06-15T12:03:09.265Z,19.96
2018-06-15T12:05:38.293Z,19.91
2018-06-15T12:08:07.372Z,20.00
2018-06-15T12:10:36.154Z,19.97
2018-06-15T12:13:04.997Z,20.22
2018-06-15T12:15:33.778Z,20.12
2018-06-15T12:18:02.829Z,20.22
2018-06-15T12:20:31.582Z,20.23
2018-06-15T12:23:00.326Z,20.06
2018-06-15T12:25:29.265Z,20.16
2018-06-15T12:27:58.033Z,20.17
2018-06-15T12:30:26.789Z,20.28
2018-06-15T12:32:55.521Z,20.16
2018-06-15T12:35:24.275Z,20.12
2018-06-15T12:37:53.147Z,20.13
2018-06-15T12:40:21.954Z,19.95
2018-06-15T12:42:50.721Z,20.18
2018-06-15T12:45:19.566Z,20.15
2018-06-15T12:47:48.305Z,20.29
2018-06-15T12:50:17.046Z,20.19
2018-06-15T12:52:45.791Z,20.14
2018-06-15T12:55:14.557Z,20.16
2018-06-15T12:57:43.440Z,20.28
2018-06-15T13:00:12.269Z,20.40
2018-06-15T13:02:41.037Z,20.27
2018-06-15T13:05:09.820Z,20.33
2018-06-15T13:07:38.587Z,20.37
2018-06-15T13:10:07.358Z,20.52
2018-06-15T13:12:36.125Z,20.36
2018-06-15T13:15:04.958Z,20.38
2018-06-15T13:17:33.717Z,20.32
2018-06-15T13:20:02.646Z,20.30
2018-06-15T13:22:31.465Z,20.33
2018-06-15T13:25:00.213Z,20.40
2018-06-15T13:27:28.962Z,20.34
2018-06-15T13:30:04.075Z,20.39
2018-06-15T13:32:32.848Z,20.46
2018-06-15T13:35:01.621Z,20.43
2018-06-15T13:37:30.495Z,20.48
2018-06-15T13:39:59.544Z,20.53
2018-06-15T13:42:28.615Z,20.48
2018-06-15T13:44:57.399Z,20.67
2018-06-15T13:47:26.238Z,20.55
2018-06-15T13:49:55.048Z,20.53
2018-06-15T13:52:23.905Z,20.47
2018-06-15T13:55:13.955Z,20.44
2018-06-15T13:57:42.766Z,20.50
2018-06-15T14:00:11.545Z,20.63
2018-06-15T14:02:40.314Z,20.59
2018-06-15T14:05:09.171Z,20.50
2018-06-15T14:07:37.954Z,20.46
2018-06-15T14:10:06.962Z,20.45
2018-06-15T14:12:35.776Z,20.46
2018-06-15T14:15:04.611Z,20.52
2018-06-15T14:17:33.449Z,20.48
2018-06-15T14:20:02.298Z,20.51
2018-06-15T14:22:31.075Z,20.38
2018-06-15T14:24:59.851Z,20.44
2018-06-15T14:27:28.665Z,20.53
2018-06-15T14:29:57.517Z,20.56
2018-06-15T14:32:26.405Z,20.54
2018-06-15T14:34:55.186Z,20.59
2018-06-15T14:37:23.972Z,20.55
2018-06-15T14:39:52.749Z,20.49
2018-06-15T14:42:21.525Z,20.60
2018-06-15T14:44:50.326Z,20.60
2018-06-15T14:47:19.109Z,20.61
2018-06-15T14:49:47.894Z,20.61
2018-06-15T14:52:16.685Z,20.63
2018-06-15T14:54:45.741Z,20.63
2018-06-15T14:57:14.545Z,20.77
2018-06-15T14:59:43.337Z,20.66
2018-06-15T15:02:12.363Z,20.63
2018-06-15T15:04:41.130Z,20.60
2018-06-15T15:07:09.979Z,20.54
2018-06-15T15:09:38.807Z,20.56
2018-06-15T15:12:07.615Z,20.59
2018-06-15T15:14:36.405Z,20.54
2018-06-15T15:17:05.312Z,20.69
2018-06-15T15:19:34.065Z,20.64
2018-06-15T15:22:02.829Z,20.70
2018-06-15T15:24:31.653Z,20.68
2018-06-15T15:27:00.426Z,20.59
2018-06-15T15:29:29.210Z,20.54
2018-06-15T15:31:57.970Z,20.57
2018-06-15T15:34:26.794Z,20.34
2018-06-15T15:36:55.577Z,20.61
2018-06-15T15:39:24.478Z,20.60
2018-06-15T15:41:53.289Z,20.56
2018-06-15T15:44:22.154Z,20.52
2018-06-15T15:46:50.927Z,20.62
2018-06-15T15:49:19.702Z,20.70
2018-06-15T15:51:48.522Z,20.67
2018-06-15T15:54:17.293Z,20.66
2018-06-15T15:56:46.083Z,20.64
2018-06-15T15:59:14.866Z,20.65
2018-06-15T16:01:43.666Z,20.63
2018-06-15T16:04:12.478Z,20.64
2018-06-15T16:06:41.233Z,20.61
2018-06-15T16:09:10.639Z,20.68
2018-06-15T16:11:39.441Z,20.71
2018-06-15T16:14:08.253Z,20.66
2018-06-15T16:16:37.152Z,20.74
2018-06-15T16:19:05.981Z,20.73
2018-06-15T16:21:34.779Z,20.70
2018-06-15T16:24:03.563Z,20.65
2018-06-15T16:26:32.332Z,20.57
2018-06-15T16:29:01.981Z,20.58
2018-06-15T16:31:31.422Z,20.64
2018-06-15T16:34:00.225Z,20.59
2018-06-15T16:36:33.578Z,20.68
2018-06-15T16:39:02.322Z,20.69
2018-06-15T16:41:31.139Z,20.75
2018-06-15T16:43:59.948Z,20.69
2018-06-15T16:46:28.835Z,20.67
2018-06-15T16:48:57.589Z,20.67
2018-06-15T16:51:26.376Z,20.72
2018-06-15T16:53:55.136Z,20.71
2018-06-15T16:56:23.943Z,20.46
2018-06-15T16:58:52.734Z,20.64
2018-06-15T17:01:21.511Z,20.71
2018-06-15T17:03:50.349Z,20.73
2018-06-15T17:06:19.170Z,20.50
2018-06-15T17:08:48.113Z,20.71
2018-06-15T17:11:16.881Z,20.73
2018-06-15T17:13:45.713Z,20.73
2018-06-15T17:16:14.505Z,20.75
2018-06-15T17:18:43.407Z,20.70
2018-06-15T17:21:12.265Z,20.74
2018-06-15T17:23:41.038Z,20.65
2018-06-15T17:26:09.817Z,20.58
2018-06-15T17:28:38.661Z,20.61
2018-06-15T17:31:07.474Z,20.63
2018-06-15T17:33:36.331Z,20.61
2018-06-15T17:36:05.423Z,20.63
2018-06-15T17:38:34.348Z,20.63
2018-06-15T17:41:03.196Z,20.60
2018-06-15T17:43:32.060Z,20.65
2018-06-15T17:46:00.814Z,20.67
2018-06-15T17:48:29.676Z,20.61
2018-06-15T17:50:58.690Z,20.57
2018-06-15T17:53:27.490Z,20.60
2018-06-15T17:55:56.293Z,20.55
2018-06-15T17:58:25.242Z,20.55
2018-06-15T18:00:54.021Z,20.52
2018-06-15T18:03:22.849Z,20.54
2018-06-15T18:05:51.630Z,20.51
2018-06-15T18:08:20.462Z,20.48
2018-06-15T18:10:49.260Z,20.49
2018-06-15T18:13:18.197Z,20.44
2018-06-15T18:15:47.028Z,20.42
2018-06-15T18:18:15.937Z,20.19
2018-06-15T18:20:44.738Z,20.44
2018-06-15T18:23:13.499Z,20.44
2018-06-15T18:25:42.309Z,20.43
2018-06-15T18:28:11.105Z,20.42
2018-06-15T18:30:39.915Z,20.40
2018-06-15T18:33:09.251Z,20.39
2018-06-15T18:35:38.087Z,20.37
2018-06-15T18:38:06.953Z,20.35
2018-06-15T18:40:36.309Z,20.37
2018-06-15T18:43:05.442Z,20.36
2018-06-15T18:45:34.460Z,20.33
2018-06-15T18:48:03.330Z,20.31
2018-06-15T18:50:32.225Z,20.29
2018-06-15T18:53:01.019Z,20.29
2018-06-15T18:55:29.840Z,20.27
2018-06-15T18:57:58.898Z,20.26
2018-06-15T19:00:28.200Z,20.24
2018-06-15T19:02:57.001Z,20.23
2018-06-15T19:05:25.915Z,20.21
2018-06-15T19:07:54.776Z,20.20
2018-06-15T19:10:23.616Z,19.97
2018-06-15T19:12:52.426Z,20.18
2018-06-15T19:15:21.216Z,20.24
2018-06-15T19:17:50.134Z,20.31
2018-06-15T19:20:19.750Z,20.35
2018-06-15T19:22:48.753Z,20.38
2018-06-15T19:25:17.765Z,20.42
2018-06-15T19:27:46.611Z,20.44
2018-06-15T19:30:15.522Z,20.46
2018-06-15T19:32:44.374Z,20.47
2018-06-15T19:35:13.217Z,20.47
2018-06-15T19:37:42.009Z,20.49
2018-06-15T19:40:10.782Z,20.49
2018-06-15T19:42:39.593Z,20.53
2018-06-15T19:45:08.500Z,20.52
2018-06-15T19:47:37.258Z,20.53
2018-06-15T19:50:06.063Z,20.54
2018-06-15T19:52:34.890Z,20.54
2018-06-15T19:55:03.682Z,20.51
2018-06-15T19:57:32.469Z,20.55
2018-06-15T20:00:01.249Z,20.54
2018-06-15T20:02:30.016Z,20.57
2018-06-15T20:04:58.814Z,20.58
2018-06-15T20:07:27.606Z,20.54
2018-06-15T20:09:56.503Z,20.44
2018-06-15T20:12:25.324Z,20.38
2018-06-15T20:14:54.111Z,20.20
2018-06-15T20:17:22.874Z,20.18
2018-06-15T20:19:51.683Z,20.17
2018-06-15T20:22:20.579Z,20.10
2018-06-15T20:24:49.358Z,20.04
2018-06-15T20:27:18.184Z,19.96
2018-06-15T20:29:46.955Z,19.81
2018-06-15T20:32:15.764Z,19.70
2018-06-15T20:34:44.553Z,19.66
2018-06-15T20:37:13.328Z,19.75
2018-06-15T20:39:42.226Z,19.76
2018-06-15T20:42:11.250Z,19.64
2018-06-15T20:44:40.004Z,19.64
2018-06-15T20:47:08.777Z,19.56
2018-06-15T20:49:37.577Z,19.58
2018-06-15T20:52:06.482Z,19.58
2018-06-15T20:54:35.275Z,19.54
2018-06-15T20:57:04.109Z,19.39
2018-06-15T20:59:32.901Z,19.39
2018-06-15T21:02:01.680Z,19.41
2018-06-15T21:04:30.533Z,19.16
2018-06-15T21:06:59.278Z,19.17
2018-06-15T21:09:28.037Z,19.25
2018-06-15T21:11:56.846Z,19.16
2018-06-15T21:14:25.814Z,19.21
2018-06-15T21:16:54.631Z,19.15
2018-06-15T21:19:23.409Z,19.11
2018-06-15T21:21:52.250Z,18.99
2018-06-15T21:24:21.041Z,18.96
2018-06-15T21:26:49.853Z,18.93
2018-06-15T21:29:18.621Z,18.93
2018-06-15T21:31:47.417Z,18.89
2018-06-15T21:34:16.181Z,18.86
2018-06-15T21:36:44.934Z,18.70
2018-06-15T21:39:13.710Z,18.77
2018-06-15T21:41:42.505Z,18.70
2018-06-15T21:44:11.281Z,18.63
2018-06-15T21:46:40.066Z,18.55
2018-06-15T21:49:08.917Z,18.69
2018-06-15T21:51:37.684Z,18.63
2018-06-15T21:54:06.534Z,18.59
2018-06-15T21:56:35.346Z,18.60
2018-06-15T21:59:04.118Z,18.66
2018-06-15T22:01:32.910Z,18.61
2018-06-15T22:04:02.013Z,18.36
2018-06-15T22:06:30.845Z,18.49
2018-06-15T22:08:59.641Z,18.23
2018-06-15T22:11:28.473Z,18.24
2018-06-15T22:13:57.234Z,18.23
2018-06-15T22:16:26.094Z,18.27
2018-06-15T22:18:55.014Z,18.19
2018-06-15T22:21:23.804Z,18.27
2018-06-15T22:23:52.573Z,18.26
2018-06-15T22:26:21.607Z,18.08
2018-06-15T22:28:50.386Z,18.05
2018-06-15T22:31:19.193Z,18.18
2018-06-15T22:33:48.003Z,18.04
2018-06-15T22:36:16.785Z,18.02
2018-06-15T22:38:45.582Z,17.93
2018-06-15T22:41:14.385Z,17.83
2018-06-15T22:43:43.162Z,17.78
2018-06-15T22:46:11.938Z,17.93
2018-06-15T22:48:40.724Z,17.80
2018-06-15T22:51:09.493Z,17.89
2018-06-15T22:53:38.346Z,17.83
2018-06-15T22:56:07.297Z,17.59
2018-06-15T22:58:36.182Z,17.76
2018-06-15T23:01:05.016Z,17.73
2018-06-15T23:03:33.811Z,17.69
2018-06-15T23:06:02.626Z,17.48
2018-06-15T23:08:31.417Z,17.41
2018-06-15T23:11:00.200Z,17.44
2018-06-15T23:13:28.968Z,17.47
2018-06-15T23:15:58.161Z,17.47
2018-06-15T23:18:26.980Z,17.35
2018-06-15T23:20:55.757Z,17.51
2018-06-15T23:23:24.612Z,17.54
2018-06-15T23:25:53.563Z,17.59
2018-06-15T23:28:22.318Z,17.38
2018-06-15T23:30:51.094Z,17.52
2018-06-15T23:33:19.886Z,17.45
2018-06-15T23:35:48.691Z,17.35
2018-06-15T23:38:17.483Z,17.28
2018-06-15T23:40:46.236Z,17.31
2018-06-15T23:43:14.982Z,17.31
2018-06-15T23:45:43.773Z,17.35
2018-06-15T23:48:12.521Z,17.42
2018-06-15T23:50:41.283Z,17.29
2018-06-15T23:53:10.067Z,17.27
2018-06-15T23:55:38.879Z,17.17
2018-06-15T23:58:07.630Z,17.30
